Hollywood, FL

11:42 AM EST on January 26, 2015 (GMT -0500)
Opa Locka | Change Station
CLOSE
Current Station
Airport
Location: Opa Locka,
Elevation: 10 ft
Nearby Weather Stations

Elev 10 ft 25.91 °N, 80.28 °W | Updated 36 minutes ago

Rain
Rain
64 °F
Feels Like 64 °F
N
18
Wind Variable Wind from NW
Gusts 29 mph

Today
High -- | Low -- °F
--% Chance of Precip.
Yesterday
High -- | Low -- °F
Precip. -- in
7:07 AM 5:59 PM
Waxing Crescent, 44% visible
Pressure 29.96 in
Visibility 10.0 miles
Clouds Few 3100 ft
Mostly Cloudy 3900 ft
Overcast 6000 ft
Dew Point 59 °F
Humidity 84%
Rainfall 0.00 in
Snow Depth Not available.
UV 2 out of 12
Pollen 6.90 out of 12
Air Quality Not available.
Flu Activity Not available.
SPECI KOPF 261606Z 32016G25KT 10SM FEW031 BKN039 OVC060 18/15 A2996 RMK AO2 PK WND 28036/1554 WSHFT 1546 RAE06 P0001 T01780150 $

More Conditions Fewer Conditions

Pressure 29.96 in
Visibility 10.0 miles
Clouds Few 3100 ft
Mostly Cloudy 3900 ft
Overcast 6000 ft
Dew Point 59 °F
Humidity 84%
Rainfall 0.00 in
Snow Depth Not available.
UV 2 out of 12
Pollen 6.90 out of 12
Air Quality Not available.
Flu Activity Not available.
SPECI KOPF 261606Z 32016G25KT 10SM FEW031 BKN039 OVC060 18/15 A2996 RMK AO2 PK WND 28036/1554 WSHFT 1546 RAE06 P0001 T01780150 $

More Conditions Fewer Conditions

Nowcast | as of 10:12 am EST on January 26, 2015

Showers were moving quickly eastward into the East Coast Metro areas this morning. Gusty winds up to 35 mph and brief heavy downpours will accompany these showers. Rainfall will end around noon...with breezy to windy conditions continuing through the afternoon.

×

10-Day Weather Forecast

Almanac

Astronomy

Jan. 26, 2015 Rise Set
Actual Time
Civil Twilight
Nautical Twilight
Astronomical Twilight
Moon
Length of Visible Light
Length of Day
Tomorrow will be .
, % of the Moon is Illuminated

Today's Extremes

State Highs State Lows

Community

WunderPhotos

Upload Photos

1,790,289 photos uploaded!

WunderBlogs® & News

Nearby

Air Quality

  Air Quality AQ Index Pollutant
Not available.

Snow Depth

Station Depth Elevation

Earthquake Activity

City Distance Mag. Time & Date
Minimum magnitude displayed is 2.5.

Coastal Water Temperatures

Place Temperature

Nearby Weather Stations